Time;durP1;ratioP1;P1;durP2;ratioP2;P2;SDS_P1;SDS_P2;PMS_P1;PMS_P2;Temp;Humidity;BMP_temperature;BMP_pressure;BME280_temperature;BME280_humidity;BME280_pressure;Samples;Min_cycle;Max_cycle;Signal;HPM_P1;HPM_P2
2022/05/04 00:01:56;;;;;;;4.13;1.70;;;9.20;99.90;;;;;;5029127;28;20509;-76
2022/05/04 00:04:22;;;;;;;5.35;2.17;;;9.20;99.90;;;;;;5045601;28;20055;-76
2022/05/04 00:06:48;;;;;;;5.93;1.77;;;9.20;99.90;;;;;;5046184;28;20043;-75
2022/05/04 00:09:14;;;;;;;7.15;1.60;;;9.20;99.90;;;;;;5025183;28;20494;-76
2022/05/04 00:11:40;;;;;;;8.48;2.15;;;9.30;99.90;;;;;;5062480;28;20045;-76
2022/05/04 00:14:06;;;;;;;7.82;1.80;;;9.20;99.90;;;;;;5029371;28;20072;-75
2022/05/04 00:16:31;;;;;;;4.47;1.77;;;9.20;99.90;;;;;;5043986;28;20150;-75
2022/05/04 00:18:57;;;;;;;3.65;1.60;;;9.20;99.90;;;;;;5028963;28;20056;-75
2022/05/04 00:21:23;;;;;;;5.57;1.98;;;9.20;99.90;;;;;;5042314;28;20056;-75
2022/05/04 00:23:49;;;;;;;6.57;1.90;;;9.20;99.90;;;;;;5025504;28;20045;-74
2022/05/04 00:26:14;;;;;;;5.95;1.92;;;9.20;99.90;;;;;;5029361;28;20052;-75
2022/05/04 00:28:40;;;;;;;6.68;1.98;;;9.20;99.90;;;;;;5042297;28;20052;-75
2022/05/04 00:31:06;;;;;;;5.70;1.90;;;9.20;99.90;;;;;;5044269;28;20125;-75
2022/05/04 00:33:31;;;;;;;6.20;2.13;;;9.20;99.90;;;;;;5005317;28;20049;-74
2022/05/04 00:35:57;;;;;;;5.32;2.13;;;9.20;99.90;;;;;;5044794;28;20390;-75
2022/05/04 00:38:23;;;;;;;7.78;2.30;;;9.20;99.90;;;;;;5043492;28;20053;-76
2022/05/04 00:40:48;;;;;;;6.68;2.20;;;9.20;99.90;;;;;;5060292;28;20045;-75
2022/05/04 00:43:24;;;;;;;6.00;2.30;;;9.20;99.90;;;;;;5043814;28;20037;-73
2022/05/04 00:45:50;;;;;;;;;;;9.20;99.90;;;;;;5078652;28;20179;-75
2022/05/04 00:48:16;;;;;;;7.00;2.00;;;9.20;99.90;;;;;;5060210;28;19939;-75
2022/05/04 00:50:43;;;;;;;4.57;1.95;;;9.10;99.90;;;;;;5077320;28;20500;-74
2022/05/04 00:53:10;;;;;;;4.85;1.80;;;9.10;99.90;;;;;;5038365;28;20056;-74
2022/05/04 00:55:36;;;;;;;5.20;2.13;;;9.10;99.90;;;;;;5026133;28;20049;-74
2022/05/04 01:00:48;;;;;;;6.30;2.05;;;9.10;99.90;;;;;;5042890;28;20045;-75
2022/05/04 01:03:14;;;;;;;7.07;2.13;;;9.10;99.90;;;;;;5044728;28;20498;-75
2022/05/04 01:05:41;;;;;;;4.35;2.00;;;9.10;99.90;;;;;;5062388;28;20041;-75
2022/05/04 01:08:07;;;;;;;5.97;1.98;;;9.00;99.90;;;;;;5056885;28;20497;-75
2022/05/04 01:10:33;;;;;;;6.78;2.08;;;9.00;99.90;;;;;;5044013;28;20049;-75
2022/05/04 01:12:59;;;;;;;7.85;2.17;;;9.00;99.90;;;;;;5043351;28;20077;-76
2022/05/04 01:15:25;;;;;;;5.32;1.83;;;9.00;99.90;;;;;;5027663;28;20110;-76
2022/05/04 01:17:51;;;;;;;6.78;2.17;;;9.00;99.90;;;;;;5044654;28;20068;-76
2022/05/04 01:20:18;;;;;;;5.53;2.00;;;9.00;99.90;;;;;;5022972;28;20091;-75
2022/05/04 01:22:44;;;;;;;7.55;2.00;;;9.00;99.90;;;;;;5042182;28;20498;-75
2022/05/04 01:25:11;;;;;;;6.13;2.10;;;9.00;99.90;;;;;;5043504;28;20646;-74
2022/05/04 01:27:38;;;;;;;7.28;2.63;;;9.00;99.90;;;;;;5026415;28;20041;-75
2022/05/04 01:30:05;;;;;;;5.00;2.30;;;9.00;99.90;;;;;;5044813;28;20041;-75
2022/05/04 01:32:31;;;;;;;5.55;2.10;;;9.00;99.90;;;;;;5025565;28;20118;-76
2022/05/04 01:34:58;;;;;;;8.10;2.60;;;8.90;99.90;;;;;;5042813;28;20178;-76
2022/05/04 01:37:24;;;;;;;5.00;2.05;;;9.00;99.90;;;;;;5028757;28;20048;-76
2022/05/04 01:39:50;;;;;;;6.30;2.28;;;9.20;99.90;;;;;;5015627;28;20812;-75
2022/05/04 01:42:16;;;;;;;4.05;2.10;;;8.90;99.90;;;;;;5065233;28;20091;-75
2022/05/04 01:44:44;;;;;;;6.88;2.20;;;8.90;99.90;;;;;;5030769;28;20056;-75
2022/05/04 01:47:10;;;;;;;5.25;1.98;;;8.90;99.90;;;;;;5045491;28;20152;-76
2022/05/04 01:49:37;;;;;;;7.32;2.10;;;8.90;99.90;;;;;;5010200;28;20112;-75
2022/05/04 01:52:03;;;;;;;8.60;2.90;;;8.90;99.90;;;;;;5008949;28;20052;-76
2022/05/04 01:54:29;;;;;;;4.80;2.38;;;8.90;99.90;;;;;;5048550;28;20132;-77
2022/05/04 01:56:55;;;;;;;4.93;1.95;;;8.90;99.90;;;;;;5046241;28;20132;-74
2022/05/04 01:59:21;;;;;;;5.07;2.25;;;8.80;99.90;;;;;;5031350;28;20055;-76
2022/05/04 02:01:47;;;;;;;5.97;2.22;;;8.90;99.90;;;;;;5045806;28;20063;-78
2022/05/04 02:04:14;;;;;;;5.53;2.15;;;8.80;99.90;;;;;;5008421;28;20045;-77
2022/05/04 02:06:40;;;;;;;8.73;2.28;;;8.80;99.90;;;;;;5048074;28;20049;-77
2022/05/04 02:09:06;;;;;;;4.25;2.17;;;8.70;99.90;;;;;;5045906;28;20048;-74
2022/05/04 02:11:32;;;;;;;7.38;2.17;;;8.70;99.90;;;;;;5047135;28;20128;-75
2022/05/04 02:13:59;;;;;;;5.70;2.13;;;8.70;99.90;;;;;;5047144;28;20041;-74
2022/05/04 02:16:26;;;;;;;5.18;2.38;;;8.70;99.90;;;;;;5080379;28;20573;-75
2022/05/04 02:18:52;;;;;;;4.93;2.00;;;8.70;99.90;;;;;;5047274;28;20090;-74
2022/05/04 02:21:18;;;;;;;4.68;2.03;;;8.70;99.90;;;;;;5026594;28;20491;-71
2022/05/04 02:23:44;;;;;;;6.20;2.70;;;8.70;99.90;;;;;;5025447;28;20073;-75
2022/05/04 02:26:10;;;;;;;4.60;1.80;;;8.70;99.90;;;;;;5046693;28;20479;-75
2022/05/04 02:28:35;;;;;;;7.75;2.63;;;8.70;99.90;;;;;;5029926;28;20056;-75
2022/05/04 02:31:02;;;;;;;4.63;2.10;;;8.70;99.90;;;;;;5064160;28;20044;-75
2022/05/04 02:33:27;;;;;;;6.90;1.98;;;8.70;99.90;;;;;;5042048;28;20045;-75
2022/05/04 02:38:37;;;;;;;5.47;2.05;;;8.70;99.90;;;;;;5080055;28;20052;-75
2022/05/04 02:41:03;;;;;;;5.35;1.85;;;8.60;99.90;;;;;;5041563;28;20087;-75
2022/05/04 02:43:29;;;;;;;4.32;1.80;;;8.60;99.90;;;;;;5045767;28;20362;-72
2022/05/04 02:46:11;;;;;;;5.85;2.00;;;8.60;99.90;;;;;;5027354;28;20141;-75
2022/05/04 02:48:36;;;;;;;5.55;1.70;;;8.60;99.90;;;;;;5027252;28;20497;-75
2022/05/04 02:51:02;;;;;;;6.43;1.70;;;8.60;99.90;;;;;;5009450;28;20044;-75
2022/05/04 02:53:28;;;;;;;7.07;1.65;;;8.60;99.90;;;;;;5030262;28;20037;-75
2022/05/04 02:55:54;;;;;;;6.00;1.92;;;8.60;99.90;;;;;;5045849;28;20183;-74
2022/05/04 02:58:19;;;;;;;5.88;1.92;;;8.70;99.90;;;;;;5030189;28;20057;-75
2022/05/04 03:00:45;;;;;;;4.95;1.90;;;8.60;99.90;;;;;;5030097;28;20045;-75
2022/05/04 03:03:11;;;;;;;5.72;1.45;;;8.60;99.90;;;;;;5047173;28;20055;-75
2022/05/04 03:05:37;;;;;;;4.50;1.73;;;8.60;99.90;;;;;;5047199;28;20482;-75
2022/05/04 03:08:02;;;;;;;4.22;1.58;;;8.70;99.90;;;;;;5045526;28;20064;-75
2022/05/04 03:10:28;;;;;;;5.25;1.70;;;8.60;99.90;;;;;;5029887;28;20067;-74
2022/05/04 03:12:54;;;;;;;7.07;2.00;;;8.60;99.90;;;;;;5047347;28;20055;-75
2022/05/04 03:15:20;;;;;;;4.03;1.83;;;8.60;99.90;;;;;;5030306;28;20056;-75
2022/05/04 03:17:45;;;;;;;6.25;1.60;;;8.60;99.90;;;;;;5060817;28;20040;-74
2022/05/04 03:20:12;;;;;;;4.82;1.70;;;8.60;99.90;;;;;;5028473;28;20056;-75
2022/05/04 03:22:38;;;;;;;4.78;1.88;;;8.60;99.90;;;;;;5051504;28;20049;-75
2022/05/04 03:25:09;;;;;;;5.50;1.73;;;8.60;99.90;;;;;;5033291;28;20045;-75
2022/05/04 03:27:35;;;;;;;5.28;1.55;;;8.60;99.90;;;;;;5024690;28;20192;-75
2022/05/04 03:30:01;;;;;;;5.00;1.60;;;8.60;99.90;;;;;;5063495;28;20056;-75
2022/05/04 03:32:27;;;;;;;3.90;1.50;;;8.50;99.90;;;;;;5040569;28;20047;-74
2022/05/04 03:34:53;;;;;;;5.95;2.20;;;8.50;99.90;;;;;;5028172;28;20049;-75
2022/05/04 03:37:19;;;;;;;6.80;2.13;;;8.50;99.90;;;;;;5045501;28;20175;-75
2022/05/04 03:39:45;;;;;;;7.82;1.75;;;8.50;99.90;;;;;;5026106;28;20041;-75
2022/05/04 03:42:12;;;;;;;4.95;1.70;;;8.50;99.90;;;;;;5046197;28;20367;-75
2022/05/04 03:44:37;;;;;;;4.00;1.55;;;8.50;99.90;;;;;;5078401;28;20114;-75
2022/05/04 03:47:03;;;;;;;4.00;1.90;;;8.50;99.90;;;;;;5044686;28;20041;-76
2022/05/04 03:49:29;;;;;;;6.97;1.95;;;8.50;99.90;;;;;;5077579;28;20040;-75
2022/05/04 03:51:56;;;;;;;8.02;2.25;;;8.50;99.90;;;;;;5030246;28;20049;-75
2022/05/04 03:54:21;;;;;;;6.38;1.80;;;8.50;99.90;;;;;;5044727;28;20425;-74
2022/05/04 03:56:47;;;;;;;4.35;1.55;;;8.50;99.90;;;;;;5022697;28;20045;-75
2022/05/04 03:59:13;;;;;;;5.03;1.88;;;8.50;99.90;;;;;;5044671;28;20542;-75
2022/05/04 04:01:39;;;;;;;5.22;1.83;;;8.50;99.90;;;;;;5043716;28;20376;-74
2022/05/04 04:04:05;;;;;;;4.65;1.70;;;8.50;99.90;;;;;;5029258;28;20056;-75
2022/05/04 04:06:32;;;;;;;4.97;1.80;;;8.50;99.90;;;;;;5026485;28;20048;-75
2022/05/04 04:08:58;;;;;;;6.70;1.90;;;8.50;99.90;;;;;;5025400;28;20040;-76
2022/05/04 04:11:24;;;;;;;4.10;1.60;;;8.50;99.90;;;;;;5005651;28;20033;-76
2022/05/04 04:13:50;;;;;;;4.85;1.70;;;8.50;99.90;;;;;;5026323;28;20045;-76
2022/05/04 04:16:16;;;;;;;3.78;1.70;;;8.50;99.90;;;;;;5027822;28;20078;-75
2022/05/04 04:18:42;;;;;;;5.30;1.67;;;8.50;99.90;;;;;;5042993;28;20072;-77
2022/05/04 04:23:52;;;;;;;5.18;1.60;;;8.50;99.90;;;;;;5048949;28;20111;-75
2022/05/04 04:26:18;;;;;;;6.10;1.90;;;8.60;99.90;;;;;;5045617;28;20522;-77
2022/05/04 04:28:44;;;;;;;6.50;2.20;;;8.60;99.90;;;;;;5060986;28;20113;-75
2022/05/04 04:31:10;;;;;;;4.97;1.80;;;8.60;99.90;;;;;;5045656;28;20056;-75
2022/05/04 04:33:36;;;;;;;7.45;1.77;;;8.60;99.90;;;;;;5042509;28;20045;-75
2022/05/04 04:36:03;;;;;;;5.82;2.10;;;8.60;99.90;;;;;;5045397;28;20045;-75
2022/05/04 04:38:29;;;;;;;3.25;1.83;;;8.60;99.90;;;;;;5044701;28;20068;-75
2022/05/04 04:40:56;;;;;;;5.15;2.20;;;8.70;99.90;;;;;;5044716;28;20139;-76
2022/05/04 04:43:21;;;;;;;6.68;2.22;;;8.70;99.90;;;;;;5049107;28;20130;-75
2022/05/04 04:45:48;;;;;;;5.82;2.22;;;8.70;99.90;;;;;;5063000;28;20076;-75
2022/05/04 04:48:18;;;;;;;5.20;2.15;;;8.80;99.90;;;;;;5040407;28;20064;-74
2022/05/04 04:50:44;;;;;;;5.40;2.20;;;8.80;99.90;;;;;;5044343;28;20049;-74
2022/05/04 04:53:11;;;;;;;6.22;2.17;;;8.80;99.90;;;;;;5027921;28;20393;-75
2022/05/04 04:55:39;;;;;;;6.30;2.30;;;8.80;99.90;;;;;;5063269;28;20175;-71
2022/05/04 04:58:05;;;;;;;9.57;2.25;;;8.80;99.90;;;;;;5046819;28;20099;-74
2022/05/04 05:00:30;;;;;;;4.70;2.28;;;8.80;99.90;;;;;;5076321;28;20470;-74
2022/05/04 05:02:56;;;;;;;5.43;2.25;;;8.80;99.90;;;;;;5042503;28;20041;-75
2022/05/04 05:05:23;;;;;;;5.90;2.33;;;8.90;99.90;;;;;;5044465;28;20048;-75
2022/05/04 05:07:49;;;;;;;4.18;2.40;;;8.90;99.90;;;;;;5060387;28;20045;-75
2022/05/04 05:10:14;;;;;;;4.07;1.90;;;8.90;99.90;;;;;;5076632;28;20052;-75
2022/05/04 05:12:40;;;;;;;5.63;1.98;;;8.90;99.90;;;;;;5046094;28;20049;-75
2022/05/04 05:17:55;;;;;;;6.82;1.70;;;9.00;99.90;;;;;;5054488;28;20088;-75
2022/05/04 05:20:21;;;;;;;5.88;1.95;;;9.00;99.90;;;;;;5031531;28;20485;-75
2022/05/04 05:22:47;;;;;;;8.00;1.95;;;9.00;99.90;;;;;;5064119;28;20044;-74
2022/05/04 05:25:12;;;;;;;6.00;1.80;;;9.10;99.90;;;;;;5046008;28;20316;-75
2022/05/04 05:27:38;;;;;;;6.57;1.83;;;9.80;99.90;;;;;;5066386;28;20072;-75
2022/05/04 05:30:05;;;;;;;5.20;2.15;;;9.20;99.90;;;;;;5047202;28;20049;-75
2022/05/04 05:32:31;;;;;;;5.60;2.20;;;9.20;99.90;;;;;;5046625;28;20045;-75
2022/05/04 05:34:56;;;;;;;4.63;1.85;;;9.20;99.90;;;;;;5048728;28;20093;-76
2022/05/04 05:37:22;;;;;;;5.68;2.30;;;9.30;99.90;;;;;;5065495;28;20052;-77
2022/05/04 05:39:48;;;;;;;5.90;1.88;;;9.30;99.90;;;;;;5045513;28;20067;-75
2022/05/04 05:42:14;;;;;;;5.85;2.28;;;9.30;99.90;;;;;;5048939;28;20066;-75
2022/05/04 05:44:41;;;;;;;4.72;1.90;;;9.40;99.90;;;;;;5047985;28;20386;-75
2022/05/04 05:47:06;;;;;;;3.97;1.90;;;9.40;99.90;;;;;;5026968;28;20057;-75
2022/05/04 05:49:32;;;;;;;6.10;2.20;;;9.50;99.90;;;;;;5082860;28;20053;-80
2022/05/04 05:51:58;;;;;;;5.00;2.03;;;9.50;99.90;;;;;;5062247;28;20371;-75
2022/05/04 05:54:24;;;;;;;5.50;2.00;;;9.60;99.90;;;;;;5048349;28;20127;-75
2022/05/04 05:56:50;;;;;;;8.57;2.50;;;9.70;99.90;;;;;;5027018;28;20065;-74
2022/05/04 05:59:15;;;;;;;4.93;1.85;;;9.70;99.90;;;;;;5029918;28;20515;-75
2022/05/04 06:01:44;;;;;;;5.78;2.05;;;9.80;99.90;;;;;;5047333;28;20041;-75
2022/05/04 06:04:10;;;;;;;6.00;1.95;;;9.80;99.90;;;;;;5027654;28;20057;-75
2022/05/04 06:06:36;;;;;;;6.15;2.17;;;9.90;99.90;;;;;;5081299;28;20033;-74
2022/05/04 06:09:03;;;;;;;5.05;2.00;;;9.90;99.90;;;;;;5044993;28;20041;-76
2022/05/04 06:11:30;;;;;;;6.43;2.03;;;10.00;99.90;;;;;;5061261;28;20055;-75
2022/05/04 06:13:56;;;;;;;4.93;2.08;;;10.10;99.90;;;;;;5030944;28;20044;-76
2022/05/04 06:16:22;;;;;;;5.00;1.63;;;10.20;99.90;;;;;;5046680;28;20106;-75
2022/05/04 06:18:48;;;;;;;5.40;2.08;;;10.20;99.90;;;;;;5048315;28;20182;-75
2022/05/04 06:21:14;;;;;;;5.75;2.05;;;10.30;99.90;;;;;;5061670;28;20053;-76
2022/05/04 06:23:39;;;;;;;5.20;2.10;;;10.30;99.90;;;;;;5045863;28;20057;-76
2022/05/04 06:26:05;;;;;;;7.07;2.42;;;10.40;99.90;;;;;;5032748;28;20049;-75
2022/05/04 06:28:31;;;;;;;5.35;1.70;;;10.50;99.90;;;;;;5041379;28;20052;-75
2022/05/04 06:36:25;;;;;;;8.02;2.38;;;10.60;99.90;;;;;;5046210;28;20053;-75
2022/05/04 06:38:51;;;;;;;6.22;2.13;;;10.70;99.90;;;;;;5047437;28;20106;-75
2022/05/04 06:41:18;;;;;;;5.72;2.33;;;10.80;99.90;;;;;;5064476;28;20056;-74
2022/05/04 06:43:45;;;;;;;5.70;1.80;;;10.80;99.90;;;;;;5064075;28;20057;-74
2022/05/04 06:46:11;;;;;;;4.57;1.95;;;10.90;99.90;;;;;;5049818;28;20052;-75
2022/05/04 06:48:38;;;;;;;4.75;2.13;;;11.00;99.90;;;;;;5080947;28;20041;-75
2022/05/04 06:51:03;;;;;;;7.90;1.80;;;11.00;99.90;;;;;;5049030;28;20478;-74
2022/05/04 06:53:29;;;;;;;5.97;1.70;;;11.00;99.90;;;;;;5047977;28;20134;-74
2022/05/04 06:55:55;;;;;;;5.72;1.80;;;11.10;99.90;;;;;;5066610;28;20509;-75
2022/05/04 06:58:20;;;;;;;7.05;2.08;;;11.10;99.90;;;;;;5049002;28;20454;-73
2022/05/04 07:00:46;;;;;;;7.47;2.60;;;11.10;99.90;;;;;;5064370;28;20041;-73
2022/05/04 07:03:12;;;;;;;6.32;1.98;;;11.00;99.90;;;;;;5048828;28;20113;-73
2022/05/04 07:05:37;;;;;;;8.13;2.67;;;11.00;99.90;;;;;;5046861;28;20049;-73
2022/05/04 07:08:04;;;;;;;6.00;2.17;;;11.10;99.90;;;;;;5031059;28;20487;-73
2022/05/04 07:10:29;;;;;;;4.93;2.00;;;10.80;99.90;;;;;;5013478;28;20041;-73
2022/05/04 07:12:55;;;;;;;6.18;2.22;;;10.80;99.90;;;;;;5048500;28;20041;-74
2022/05/04 07:15:21;;;;;;;6.93;1.92;;;10.80;99.90;;;;;;5049317;28;20055;-76
2022/05/04 07:17:47;;;;;;;5.15;2.03;;;10.80;99.90;;;;;;5039997;28;20049;-75
2022/05/04 07:20:12;;;;;;;6.95;1.95;;;10.90;99.90;;;;;;5007849;28;20057;-74
2022/05/04 07:22:38;;;;;;;5.10;1.65;;;10.90;99.90;;;;;;5031582;28;20061;-75
2022/05/04 07:25:04;;;;;;;5.25;1.90;;;10.90;99.90;;;;;;5047441;28;20077;-74
2022/05/04 07:27:30;;;;;;;8.55;1.75;;;11.00;99.90;;;;;;5063799;28;20045;-75
2022/05/04 07:29:56;;;;;;;5.63;1.65;;;11.10;99.90;;;;;;5046866;28;20085;-74
2022/05/04 07:32:22;;;;;;;8.63;2.28;;;11.10;99.90;;;;;;5047008;28;20112;-77
2022/05/04 07:34:47;;;;;;;5.20;1.80;;;11.10;99.90;;;;;;5046243;28;20044;-73
2022/05/04 07:37:13;;;;;;;6.53;1.70;;;11.00;99.90;;;;;;5008040;28;20565;-74
2022/05/04 07:42:34;;;;;;;3.78;1.80;;;11.00;99.90;;;;;;5047789;28;20130;-74
2022/05/04 07:45:07;;;;;;;4.07;2.05;;;11.10;99.90;;;;;;5045693;28;20041;-75
2022/05/04 07:47:35;;;;;;;6.40;1.60;;;11.10;99.90;;;;;;5030258;28;20140;-74
2022/05/04 07:50:03;;;;;;;5.25;1.65;;;11.30;99.90;;;;;;5046413;28;20041;-75
2022/05/04 07:52:29;;;;;;;5.22;1.75;;;11.40;99.90;;;;;;5040217;28;20052;-74
2022/05/04 07:54:55;;;;;;;4.35;1.40;;;11.50;99.90;;;;;;5063757;28;20045;-74
2022/05/04 07:57:21;;;;;;;6.20;1.65;;;11.70;99.90;;;;;;5046942;28;20059;-74
2022/05/04 08:04:16;;;;;;;4.10;1.65;;;11.80;99.90;;;;;;5045606;28;20347;-74
2022/05/04 08:05:20;;;;;;;4.97;2.10;;;11.90;99.90;;;;;;5046195;28;20063;-74
2022/05/04 08:07:46;;;;;;;4.97;1.80;;;12.10;99.90;;;;;;5045329;28;20053;-75
2022/05/04 08:10:13;;;;;;;4.88;2.03;;;12.10;99.90;;;;;;5047282;28;20056;-74
2022/05/04 08:12:39;;;;;;;4.70;1.75;;;12.20;99.90;;;;;;5060847;28;20049;-74
2022/05/04 08:15:05;;;;;;;7.60;1.80;;;12.20;99.90;;;;;;5045193;28;20044;-74
2022/05/04 08:17:31;;;;;;;5.78;1.70;;;12.30;99.90;;;;;;5013048;28;20071;-74
2022/05/04 08:19:58;;;;;;;5.13;1.55;;;12.30;99.90;;;;;;5046873;28;20053;-74
2022/05/04 08:22:24;;;;;;;4.18;1.38;;;12.30;99.90;;;;;;5063043;28;20135;-75
2022/05/04 08:24:49;;;;;;;4.85;1.70;;;12.40;99.90;;;;;;5064053;28;20124;-74
2022/05/04 08:27:15;;;;;;;5.22;1.80;;;12.50;99.90;;;;;;5047348;28;20056;-74
2022/05/04 08:29:41;;;;;;;4.88;1.70;;;12.50;99.90;;;;;;5064649;28;20056;-74
2022/05/04 08:32:07;;;;;;;4.80;1.50;;;12.70;99.90;;;;;;5047782;28;20053;-74
2022/05/04 08:34:32;;;;;;;3.28;1.45;;;12.80;99.90;;;;;;5064011;28;20071;-73
2022/05/04 08:36:58;;;;;;;4.72;1.58;;;12.80;99.90;;;;;;5029612;28;20478;-74
2022/05/04 08:39:24;;;;;;;5.03;1.55;;;12.90;99.90;;;;;;5047173;28;20066;-71
2022/05/04 08:41:51;;;;;;;3.45;1.58;;;13.10;99.90;;;;;;5029186;28;20517;-74
2022/05/04 08:44:18;;;;;;;4.40;1.90;;;13.40;99.90;;;;;;5046246;28;20049;-75
2022/05/04 08:46:44;;;;;;;5.90;1.77;;;13.60;99.80;;;;;;5029099;28;20064;-74
2022/05/04 08:49:12;;;;;;;6.00;1.90;;;13.90;99.80;;;;;;5048104;28;20049;-74
2022/05/04 08:51:39;;;;;;;5.18;1.48;;;14.10;99.00;;;;;;5047002;28;20099;-74
2022/05/04 08:54:09;;;;;;;5.07;1.60;;;14.30;98.60;;;;;;5045733;28;20394;-74
2022/05/04 08:56:35;;;;;;;3.92;1.30;;;14.50;98.20;;;;;;5075371;28;20053;-75
2022/05/04 08:59:02;;;;;;;5.38;1.67;;;14.50;98.00;;;;;;5061953;28;20045;-74
2022/05/04 09:01:28;;;;;;;3.97;1.40;;;14.70;98.00;;;;;;5039081;28;20060;-75
2022/05/04 09:03:54;;;;;;;4.35;1.60;;;14.70;97.60;;;;;;5030518;28;20045;-74
2022/05/04 09:06:33;;;;;;;5.85;1.80;;;14.80;97.20;;;;;;5046539;28;20049;-75
2022/05/04 09:09:06;;;;;;;4.45;1.70;;;14.70;96.30;;;;;;5080513;28;20048;-74
2022/05/04 09:11:35;;;;;;;5.15;1.50;;;14.60;96.80;;;;;;5042891;28;20465;-74
2022/05/04 09:14:10;;;;;;;4.28;1.60;;;14.50;96.90;;;;;;5061635;28;20061;-74
2022/05/04 09:16:36;;;;;;;4.90;1.40;;;14.30;96.50;;;;;;5029732;28;20532;-74
2022/05/04 09:19:08;;;;;;;3.42;1.42;;;14.30;97.10;;;;;;5047171;28;20056;-74
2022/05/04 09:21:34;;;;;;;5.30;2.03;;;14.30;96.90;;;;;;5056207;28;20053;-74
2022/05/04 09:24:00;;;;;;;4.18;1.40;;;14.20;96.80;;;;;;5079236;28;20053;-74
2022/05/04 09:26:26;;;;;;;7.90;1.52;;;13.80;96.60;;;;;;5046023;28;20402;-75
2022/05/04 09:29:06;;;;;;;3.65;1.60;;;13.70;96.40;;;;;;5056941;28;20443;-74
2022/05/04 09:31:32;;;;;;;4.38;1.77;;;13.90;96.20;;;;;;5045199;28;20040;-74
2022/05/04 09:34:00;;;;;;;7.63;1.73;;;14.20;96.30;;;;;;5044499;28;20102;-74
2022/05/04 09:36:34;;;;;;;4.55;1.55;;;14.50;96.10;;;;;;5044269;28;20045;-74
2022/05/04 09:45:17;;;;;;;4.95;1.65;;;15.40;94.50;;;;;;5079230;28;20126;-74
2022/05/04 09:47:46;;;;;;;4.50;1.42;;;15.80;94.30;;;;;;5076504;28;20530;-75
2022/05/04 09:50:14;;;;;;;2.88;1.50;;;16.30;93.90;;;;;;5078105;28;20127;-74
2022/05/04 09:52:45;;;;;;;4.47;1.42;;;16.60;93.00;;;;;;5026542;28;20065;-75
2022/05/04 09:55:24;;;;;;;3.70;1.60;;;16.60;91.70;;;;;;5045449;28;20398;-74
2022/05/04 09:57:51;;;;;;;5.13;1.70;;;16.70;91.20;;;;;;5048808;28;20118;-74
2022/05/04 10:00:21;;;;;;;3.22;1.33;;;16.70;91.40;;;;;;5064552;28;20124;-75
2022/05/04 10:02:53;;;;;;;5.25;1.70;;;17.10;91.40;;;;;;5082257;28;20060;-74
2022/05/04 10:05:20;;;;;;;5.20;1.85;;;17.00;90.50;;;;;;5047932;28;20091;-75
2022/05/04 10:07:49;;;;;;;4.00;1.70;;;17.30;90.40;;;;;;5028128;28;20048;-74
2022/05/04 10:10:17;;;;;;;5.47;1.50;;;17.30;88.70;;;;;;5045419;28;20131;-75
2022/05/04 10:12:44;;;;;;;4.70;1.60;;;17.00;88.50;;;;;;5045455;28;20167;-78
2022/05/04 10:15:12;;;;;;;3.92;1.38;;;16.80;89.00;;;;;;5079257;28;20171;-75
2022/05/04 10:18:04;;;;;;;4.35;1.45;;;16.80;88.90;;;;;;5044612;28;20053;-74
2022/05/04 10:20:44;;;;;;;7.32;1.92;;;16.60;86.70;;;;;;5079848;28;20063;-75
2022/05/04 10:23:27;;;;;;;5.53;1.63;;;16.80;88.70;;;;;;5047635;28;20044;-75
2022/05/04 10:25:57;;;;;;;3.22;1.45;;;17.20;89.10;;;;;;5079137;28;20844;-75
2022/05/04 10:28:23;;;;;;;3.47;1.60;;;17.40;86.80;;;;;;5046679;28;20045;-75
2022/05/04 10:30:55;;;;;;;6.18;1.90;;;17.60;86.80;;;;;;5046609;28;20132;-76
2022/05/04 10:33:30;;;;;;;2.72;1.45;;;17.80;85.40;;;;;;5031375;28;20041;-76
2022/05/04 10:35:56;;;;;;;6.28;1.85;;;18.10;85.20;;;;;;5051976;28;20360;-74
2022/05/04 10:38:28;;;;;;;5.35;1.55;;;18.20;83.20;;;;;;5050271;28;20083;-77
2022/05/04 10:40:59;;;;;;;6.13;1.60;;;18.40;81.90;;;;;;5050215;28;20110;-77
2022/05/04 10:43:40;;;;;;;5.38;1.70;;;18.70;80.70;;;;;;5081460;28;20049;-77
2022/05/04 10:46:18;;;;;;;5.95;1.70;;;18.50;78.00;;;;;;5080326;28;20049;-77
2022/05/04 10:48:50;;;;;;;4.10;1.65;;;18.20;79.80;;;;;;5064362;28;20048;-77
2022/05/04 10:51:18;;;;;;;5.85;1.50;;;18.10;80.00;;;;;;5066373;28;20037;-77
2022/05/04 10:53:53;;;;;;;3.63;1.38;;;18.10;80.10;;;;;;5059144;28;20080;-77
2022/05/04 10:56:24;;;;;;;3.50;1.40;;;18.40;79.40;;;;;;5063050;28;20128;-77
2022/05/04 10:58:50;;;;;;;4.70;1.45;;;18.50;79.40;;;;;;5032643;28;20041;-77
2022/05/04 11:01:34;;;;;;;6.68;1.70;;;18.60;79.30;;;;;;5031152;28;20041;-77
2022/05/04 11:04:14;;;;;;;4.53;1.65;;;18.70;78.40;;;;;;5081977;28;20136;-78
2022/05/04 11:06:55;;;;;;;3.90;1.42;;;18.80;77.20;;;;;;5065163;28;20111;-76
2022/05/04 11:09:29;;;;;;;4.90;1.35;;;18.90;78.40;;;;;;5047296;28;20057;-77
2022/05/04 11:11:57;;;;;;;4.43;1.73;;;19.10;77.50;;;;;;5080850;28;20048;-77
2022/05/04 11:14:23;;;;;;;4.38;1.50;;;19.20;77.30;;;;;;5082258;28;20057;-77
2022/05/04 11:16:51;;;;;;;5.78;1.45;;;19.00;76.30;;;;;;5041560;28;20091;-76
2022/05/04 11:19:18;;;;;;;4.63;1.45;;;19.00;76.20;;;;;;5040256;28;20053;-77
2022/05/04 11:21:45;;;;;;;4.82;1.42;;;19.00;76.40;;;;;;5007839;28;20057;-77
2022/05/04 11:24:16;;;;;;;4.55;1.33;;;18.90;75.90;;;;;;5023270;28;20053;-77
2022/05/04 11:26:47;;;;;;;5.47;1.35;;;19.00;76.10;;;;;;5047663;28;20129;-77
2022/05/04 11:29:15;;;;;;;4.35;1.50;;;18.70;75.00;;;;;;5047509;28;20182;-77
2022/05/04 11:31:47;;;;;;;4.57;1.42;;;19.00;75.90;;;;;;5051925;28;20045;-77
2022/05/04 11:34:17;;;;;;;4.22;1.50;;;19.20;74.80;;;;;;5053519;28;20048;-77
2022/05/04 11:36:45;;;;;;;5.53;1.60;;;19.50;74.10;;;;;;5043098;28;20886;-78
2022/05/04 11:39:15;;;;;;;4.43;1.40;;;19.50;73.60;;;;;;5040953;28;20052;-74
2022/05/04 11:41:44;;;;;;;3.67;1.83;;;19.30;73.00;;;;;;5062247;28;20052;-77
2022/05/04 11:44:10;;;;;;;5.80;1.50;;;19.40;72.80;;;;;;5063402;28;20099;-76
2022/05/04 11:46:35;;;;;;;5.18;1.65;;;19.40;72.70;;;;;;5063404;28;20088;-77
2022/05/04 11:49:01;;;;;;;3.92;1.40;;;19.50;72.80;;;;;;5048486;28;20041;-78
2022/05/04 11:51:27;;;;;;;5.38;1.60;;;19.60;72.90;;;;;;5030682;28;20490;-76
2022/05/04 11:53:53;;;;;;;5.47;1.67;;;19.90;72.50;;;;;;5047696;28;20053;-77
2022/05/04 11:56:18;;;;;;;5.57;2.10;;;19.80;71.40;;;;;;5039455;28;20037;-77
2022/05/04 11:58:44;;;;;;;4.00;1.55;;;19.70;71.50;;;;;;5064211;28;20655;-75
2022/05/04 12:01:13;;;;;;;6.13;1.60;;;19.90;71.40;;;;;;5063524;28;20045;-77
2022/05/04 12:03:39;;;;;;;6.88;1.80;;;19.80;71.00;;;;;;5047064;28;20053;-76
2022/05/04 12:06:09;;;;;;;4.57;1.35;;;19.80;70.80;;;;;;5046086;28;20053;-76
2022/05/04 12:08:36;;;;;;;4.95;1.38;;;19.90;70.80;;;;;;5080007;28;20048;-78
2022/05/04 12:11:03;;;;;;;6.15;2.20;;;19.70;70.20;;;;;;5006784;28;20431;-78
2022/05/04 12:13:30;;;;;;;5.72;1.48;;;19.60;70.30;;;;;;5046035;28;20481;-78
2022/05/04 12:15:56;;;;;;;3.40;1.40;;;20.00;70.90;;;;;;5022583;28;20091;-77
2022/05/04 12:18:30;;;;;;;2.88;1.33;;;20.20;69.70;;;;;;5030380;28;20049;-74
2022/05/04 12:20:56;;;;;;;4.38;1.40;;;20.10;68.10;;;;;;5027916;28;20053;-76
2022/05/04 12:23:23;;;;;;;5.72;1.40;;;20.00;68.60;;;;;;5031069;28;20045;-76
2022/05/04 12:25:49;;;;;;;3.30;1.48;;;20.10;68.40;;;;;;5030158;28;20060;-76
2022/05/04 12:28:15;;;;;;;5.32;1.67;;;19.80;68.20;;;;;;5023403;28;20053;-76
2022/05/04 12:33:30;;;;;;;5.57;1.38;;;19.80;66.70;;;;;;5063833;28;20114;-75
2022/05/04 12:35:59;;;;;;;4.78;1.65;;;19.80;66.30;;;;;;5029338;28;20048;-75
2022/05/04 12:38:26;;;;;;;4.30;1.33;;;19.80;67.50;;;;;;5045432;28;20049;-74
2022/05/04 12:40:53;;;;;;;2.63;1.40;;;19.80;66.50;;;;;;5047078;28;20049;-74
2022/05/04 12:43:19;;;;;;;4.28;1.92;;;20.00;66.50;;;;;;5047438;28;20045;-73
2022/05/04 12:45:46;;;;;;;3.13;1.30;;;20.00;65.70;;;;;;5029935;28;20056;-75
2022/05/04 12:48:12;;;;;;;3.83;1.40;;;19.80;65.80;;;;;;5081053;28;20049;-74
2022/05/04 12:50:39;;;;;;;5.22;1.55;;;20.10;65.60;;;;;;5046770;28;20053;-74
2022/05/04 12:53:05;;;;;;;4.38;1.70;;;20.10;65.20;;;;;;5028546;28;20048;-76
2022/05/04 12:58:16;;;;;;;3.60;1.45;;;20.00;64.50;;;;;;5045740;28;20056;-75
2022/05/04 13:00:43;;;;;;;5.05;1.70;;;20.30;65.20;;;;;;5047215;28;20052;-75
2022/05/04 13:03:12;;;;;;;3.95;1.42;;;20.50;64.90;;;;;;5045316;28;20056;-73
2022/05/04 13:05:41;;;;;;;5.15;1.80;;;20.60;64.40;;;;;;5046586;28;20394;-75
2022/05/04 13:08:08;;;;;;;4.70;1.80;;;20.40;63.60;;;;;;5062223;28;20045;-76
2022/05/04 13:10:36;;;;;;;3.90;1.80;;;20.10;63.70;;;;;;5047481;28;20049;-75
2022/05/04 13:13:02;;;;;;;5.85;2.20;;;19.70;63.70;;;;;;5045568;28;20048;-75
2022/05/04 13:15:28;;;;;;;4.13;1.70;;;19.60;64.10;;;;;;5046634;28;20102;-76
2022/05/04 13:17:54;;;;;;;5.57;2.33;;;19.50;64.70;;;;;;5030575;28;20049;-76
2022/05/04 13:20:20;;;;;;;4.47;2.03;;;19.50;64.80;;;;;;5046571;28;20060;-76
2022/05/04 13:22:46;;;;;;;4.30;1.88;;;19.40;65.10;;;;;;5030543;28;20075;-76
2022/05/04 13:25:12;;;;;;;4.72;1.85;;;19.20;65.30;;;;;;5045986;28;20509;-75
2022/05/04 13:27:38;;;;;;;3.90;1.88;;;19.00;66.20;;;;;;5029353;28;20057;-75